createdAt,value
2022-12-04T00:01:21.244Z,83.29
2022-12-04T00:03:52.662Z,83.06
2022-12-04T00:06:21.514Z,84.04
2022-12-04T00:08:49.569Z,83.97
2022-12-04T00:11:23.351Z,84.05
2022-12-04T00:13:51.371Z,83.76
2022-12-04T00:16:21.438Z,84.54
2022-12-04T00:18:49.712Z,84.69
2022-12-04T00:21:18.538Z,84.35
2022-12-04T00:23:46.673Z,84.91
2022-12-04T00:26:17.425Z,84.97
2022-12-04T00:28:45.197Z,84.77
2022-12-04T00:31:19.895Z,84.68
2022-12-04T00:33:47.704Z,85.42
2022-12-04T00:36:17.897Z,85.34
2022-12-04T00:38:45.763Z,85.44
2022-12-04T00:41:16.560Z,85.71
2022-12-04T00:43:45.706Z,85.57
2022-12-04T00:46:13.335Z,85.30
2022-12-04T00:48:41.604Z,85.15
2022-12-04T00:51:14.870Z,85.63
2022-12-04T00:53:42.537Z,85.77
2022-12-04T00:56:13.646Z,85.49
2022-12-04T00:58:41.948Z,85.77
2022-12-04T01:01:13.377Z,86.08
2022-12-04T01:03:42.148Z,86.37
2022-12-04T01:06:18.785Z,86.37
2022-12-04T01:08:47.244Z,88.03
2022-12-04T01:11:15.254Z,86.56
2022-12-04T01:13:42.872Z,85.98
2022-12-04T01:16:20.943Z,85.83
2022-12-04T01:18:49.226Z,85.39
2022-12-04T01:21:17.694Z,85.62
2022-12-04T01:23:45.815Z,85.74
2022-12-04T01:26:13.848Z,85.36
2022-12-04T01:28:41.882Z,84.39
2022-12-04T01:31:13.419Z,84.74
2022-12-04T01:33:42.343Z,84.48
2022-12-04T01:36:15.673Z,84.23
2022-12-04T01:38:43.755Z,84.59
2022-12-04T01:41:13.812Z,84.03
2022-12-04T01:43:41.656Z,84.07
2022-12-04T01:46:10.626Z,83.83
2022-12-04T01:48:50.632Z,84.13
2022-12-04T01:51:26.627Z,83.97
2022-12-04T01:54:00.769Z,85.94
2022-12-04T01:56:36.813Z,85.02
2022-12-04T01:59:06.231Z,85.13
2022-12-04T02:01:40.498Z,86.75
2022-12-04T02:04:08.573Z,85.80
2022-12-04T02:06:35.960Z,86.21
2022-12-04T02:09:03.905Z,85.93
2022-12-04T02:11:42.903Z,86.22
2022-12-04T02:14:25.423Z,86.51
2022-12-04T02:16:55.582Z,86.13
2022-12-04T02:19:44.502Z,86.50
2022-12-04T02:22:30.405Z,86.18
2022-12-04T02:25:20.667Z,86.62
2022-12-04T02:28:00.805Z,86.38
2022-12-04T02:30:30.941Z,86.18
2022-12-04T02:33:07.883Z,86.85
2022-12-04T02:36:08.091Z,84.88
2022-12-04T02:38:52.066Z,85.04
2022-12-04T02:41:34.996Z,83.48
2022-12-04T02:44:09.309Z,82.83
2022-12-04T02:46:45.725Z,82.90
2022-12-04T02:49:36.548Z,82.90
2022-12-04T02:52:08.425Z,84.34
2022-12-04T02:54:41.769Z,85.22
2022-12-04T02:57:16.874Z,86.17
2022-12-04T02:59:47.774Z,86.55
2022-12-04T03:02:33.349Z,85.70
2022-12-04T03:05:05.240Z,85.71
2022-12-04T03:07:42.918Z,85.98
2022-12-04T03:10:16.732Z,86.33
2022-12-04T03:13:03.400Z,86.62
2022-12-04T03:15:36.048Z,86.52
2022-12-04T03:18:10.178Z,87.18
2022-12-04T03:20:39.144Z,87.31
2022-12-04T03:23:31.176Z,85.75
2022-12-04T03:26:04.656Z,86.16
2022-12-04T03:28:44.193Z,85.02
2022-12-04T03:31:13.320Z,84.49
2022-12-04T03:33:46.278Z,83.42
2022-12-04T03:36:19.967Z,83.45
2022-12-04T03:39:08.221Z,84.27
2022-12-04T03:42:01.552Z,84.67
2022-12-04T03:44:48.607Z,83.06
2022-12-04T03:47:55.337Z,82.24
2022-12-04T03:50:39.738Z,83.00
2022-12-04T03:53:19.157Z,82.84
2022-12-04T03:56:02.014Z,84.24
2022-12-04T03:58:33.073Z,83.87
2022-12-04T04:01:04.130Z,84.05
2022-12-04T04:03:39.999Z,83.50
2022-12-04T04:06:15.873Z,83.24
2022-12-04T04:08:46.967Z,84.16
2022-12-04T04:11:26.674Z,84.21
2022-12-04T04:14:23.921Z,84.04
2022-12-04T04:17:21.334Z,83.93
2022-12-04T04:20:28.957Z,83.88
2022-12-04T04:23:18.811Z,83.11
2022-12-04T04:25:47.638Z,83.92
2022-12-04T04:28:33.872Z,83.66
2022-12-04T04:31:13.626Z,83.88
2022-12-04T04:33:56.588Z,83.90
2022-12-04T04:36:43.717Z,84.31
2022-12-04T04:39:37.483Z,83.65
2022-12-04T04:42:24.932Z,83.80
2022-12-04T04:45:07.608Z,83.64
2022-12-04T04:47:47.182Z,84.15
2022-12-04T04:50:17.127Z,83.92
2022-12-04T04:52:49.917Z,83.92
2022-12-04T04:55:19.838Z,83.57
2022-12-04T04:57:47.524Z,83.12
2022-12-04T05:00:24.131Z,82.88
2022-12-04T05:02:51.705Z,83.73
2022-12-04T05:05:19.316Z,82.59
2022-12-04T05:07:47.044Z,83.11
2022-12-04T05:10:14.631Z,82.75
2022-12-04T05:12:42.109Z,82.45
2022-12-04T05:15:10.042Z,82.77
2022-12-04T05:17:37.696Z,82.61
2022-12-04T05:20:06.819Z,82.70
2022-12-04T05:22:36.771Z,82.42
2022-12-04T05:25:04.734Z,81.75
2022-12-04T05:27:32.586Z,81.35
2022-12-04T05:30:00.296Z,82.18
2022-12-04T05:32:29.771Z,81.32
2022-12-04T05:34:58.409Z,81.12
2022-12-04T05:37:26.276Z,80.98
2022-12-04T05:39:54.300Z,81.04
2022-12-04T05:42:22.255Z,80.97
2022-12-04T05:44:50.311Z,80.45
2022-12-04T05:47:17.970Z,80.51
2022-12-04T05:49:45.433Z,80.35
2022-12-04T05:52:14.320Z,80.85
2022-12-04T05:54:42.225Z,81.26
2022-12-04T05:57:09.716Z,81.39
2022-12-04T05:59:37.408Z,80.82
2022-12-04T06:02:04.866Z,80.75
2022-12-04T06:04:33.659Z,80.31
2022-12-04T06:07:01.081Z,80.51
2022-12-04T06:09:28.588Z,80.11
2022-12-04T06:11:58.746Z,79.81
2022-12-04T06:14:26.559Z,80.51
2022-12-04T06:16:54.382Z,79.66
2022-12-04T06:19:24.099Z,79.63
2022-12-04T06:21:53.254Z,79.60
2022-12-04T06:24:24.066Z,79.33
2022-12-04T06:27:27.211Z,79.26
2022-12-04T06:29:44.568Z,79.38
2022-12-04T06:32:15.244Z,78.89
2022-12-04T06:34:51.488Z,79.51
2022-12-04T06:37:19.835Z,78.49
2022-12-04T06:39:47.388Z,78.34
2022-12-04T06:42:15.883Z,78.32
2022-12-04T06:44:43.325Z,74.79
2022-12-04T06:47:10.898Z,70.51
2022-12-04T06:49:38.644Z,68.86
2022-12-04T06:52:06.124Z,68.83
2022-12-04T06:54:33.619Z,68.32
2022-12-04T06:57:01.273Z,65.01
2022-12-04T06:59:28.865Z,62.42
2022-12-04T07:01:56.695Z,60.79
2022-12-04T07:04:24.743Z,60.34
2022-12-04T07:06:52.191Z,66.52
2022-12-04T07:09:20.022Z,71.16
2022-12-04T07:11:47.473Z,73.32
2022-12-04T07:14:15.129Z,75.75
2022-12-04T07:16:43.156Z,75.78
2022-12-04T07:19:13.343Z,76.78
2022-12-04T07:21:42.146Z,75.93
2022-12-04T07:24:15.219Z,71.58
2022-12-04T07:26:43.118Z,71.78
2022-12-04T07:29:10.971Z,74.21
2022-12-04T07:31:39.049Z,75.83
2022-12-04T07:34:06.556Z,74.39
2022-12-04T07:36:34.107Z,67.61
2022-12-04T07:39:01.973Z,59.86
2022-12-04T07:41:29.527Z,55.14
2022-12-04T07:43:57.053Z,53.57
2022-12-04T07:46:26.989Z,53.03
2022-12-04T07:48:56.710Z,51.59
2022-12-04T07:51:27.396Z,50.48
2022-12-04T07:54:02.742Z,50.43
2022-12-04T07:56:32.789Z,47.32
2022-12-04T07:59:00.955Z,49.67
2022-12-04T08:01:29.053Z,48.73
2022-12-04T08:03:58.419Z,50.49
2022-12-04T08:06:29.684Z,56.77
2022-12-04T08:09:02.478Z,60.29
2022-12-04T08:11:34.256Z,60.86
2022-12-04T08:14:03.876Z,59.70
2022-12-04T08:16:33.089Z,61.54
2022-12-04T08:19:01.183Z,56.23
2022-12-04T08:21:31.156Z,56.21
2022-12-04T08:24:00.177Z,57.08
2022-12-04T08:26:29.716Z,56.24
2022-12-04T08:28:57.772Z,56.09
2022-12-04T08:31:27.581Z,55.02
2022-12-04T08:33:58.237Z,53.64
2022-12-04T08:36:26.922Z,54.75
2022-12-04T08:38:54.741Z,56.35
2022-12-04T08:41:24.578Z,55.25
2022-12-04T08:43:57.926Z,55.43
2022-12-04T08:46:27.447Z,56.49
2022-12-04T08:48:55.857Z,56.24
2022-12-04T08:51:26.506Z,55.56
2022-12-04T08:54:06.931Z,55.71
2022-12-04T08:56:37.551Z,56.15
2022-12-04T08:59:06.879Z,54.23
2022-12-04T09:01:34.611Z,54.89
2022-12-04T09:04:02.793Z,56.50
2022-12-04T09:06:30.831Z,57.92
2022-12-04T09:08:59.166Z,55.41
2022-12-04T09:11:28.312Z,54.60
2022-12-04T09:13:56.444Z,53.78
2022-12-04T09:16:25.942Z,52.50
2022-12-04T09:18:54.770Z,50.27
2022-12-04T09:21:24.509Z,50.54
2022-12-04T09:23:52.209Z,52.01
2022-12-04T09:26:25.389Z,51.47
2022-12-04T09:28:54.807Z,53.08
2022-12-04T09:31:23.897Z,56.50
2022-12-04T09:33:52.206Z,55.12
2022-12-04T09:36:20.557Z,54.91
2022-12-04T09:38:51.759Z,55.22
2022-12-04T09:41:47.213Z,56.19
2022-12-04T09:44:32.670Z,53.06
2022-12-04T09:47:10.498Z,49.86
2022-12-04T09:49:45.085Z,48.78
2022-12-04T09:52:35.401Z,46.30
2022-12-04T09:55:06.507Z,46.02
2022-12-04T09:57:43.352Z,45.73
2022-12-04T10:00:17.318Z,41.67
2022-12-04T10:02:50.252Z,41.19
2022-12-04T10:05:37.970Z,41.55
2022-12-04T10:08:10.375Z,42.45
2022-12-04T10:10:41.447Z,43.36
2022-12-04T10:13:56.661Z,42.28
2022-12-04T10:16:51.775Z,41.28
2022-12-04T10:19:28.837Z,41.21
2022-12-04T10:22:43.626Z,41.41
2022-12-04T10:25:22.334Z,40.70
2022-12-04T10:27:58.381Z,40.89
2022-12-04T10:30:27.251Z,42.67
2022-12-04T10:33:07.382Z,41.09
2022-12-04T10:35:37.738Z,43.73
2022-12-04T10:38:23.525Z,42.36
2022-12-04T10:40:57.779Z,45.63
2022-12-04T10:43:48.888Z,41.47
2022-12-04T10:46:26.715Z,37.39
2022-12-04T10:49:06.728Z,40.33
2022-12-04T10:51:40.765Z,41.76
2022-12-04T10:54:37.532Z,44.44
2022-12-04T10:57:07.834Z,42.53
2022-12-04T10:59:35.460Z,41.61
2022-12-04T11:02:19.391Z,42.61
2022-12-04T11:04:57.189Z,45.14
2022-12-04T11:07:28.225Z,41.69
2022-12-04T11:10:39.434Z,43.37
2022-12-04T11:13:12.580Z,42.22
2022-12-04T11:15:51.666Z,39.14
2022-12-04T11:18:29.135Z,39.64
2022-12-04T11:21:00.659Z,39.97
2022-12-04T11:23:33.708Z,39.52
2022-12-04T11:26:05.838Z,39.48
2022-12-04T11:28:42.963Z,40.93
2022-12-04T11:31:18.375Z,42.46
2022-12-04T11:33:52.327Z,41.98
2022-12-04T11:36:24.956Z,42.35
2022-12-04T11:39:03.027Z,44.23
2022-12-04T11:41:37.979Z,42.40
2022-12-04T11:44:07.645Z,43.15
2022-12-04T11:46:35.393Z,43.03
2022-12-04T11:49:05.951Z,47.60
2022-12-04T11:51:49.170Z,47.91
2022-12-04T11:54:32.125Z,46.05
2022-12-04T11:57:11.975Z,46.64
2022-12-04T12:00:03.949Z,46.67
2022-12-04T12:02:46.111Z,45.75
2022-12-04T12:05:31.992Z,48.17
2022-12-04T12:08:11.457Z,47.45
2022-12-04T12:10:57.658Z,48.66
2022-12-04T12:13:37.247Z,46.85
2022-12-04T12:16:16.931Z,49.42
2022-12-04T12:19:13.523Z,50.14
2022-12-04T12:21:46.965Z,49.68
2022-12-04T12:24:23.191Z,49.43
2022-12-04T12:27:28.534Z,52.17
2022-12-04T12:29:56.401Z,53.38
2022-12-04T12:32:24.207Z,53.65
2022-12-04T12:34:52.201Z,54.44
2022-12-04T12:37:35.963Z,55.18
2022-12-04T12:40:14.671Z,54.77
2022-12-04T12:42:58.250Z,54.76
2022-12-04T12:45:41.880Z,53.78
2022-12-04T12:48:23.167Z,58.33
2022-12-04T12:51:30.893Z,56.07
2022-12-04T12:54:22.714Z,56.09
2022-12-04T12:56:55.557Z,57.16
2022-12-04T12:59:27.459Z,54.09
2022-12-04T13:02:02.313Z,55.95
2022-12-04T13:04:54.350Z,55.91
2022-12-04T13:07:47.938Z,58.86
2022-12-04T13:10:22.273Z,61.30
2022-12-04T13:12:56.970Z,61.51
2022-12-04T13:15:31.102Z,61.07
2022-12-04T13:17:59.463Z,61.55
2022-12-04T13:20:34.024Z,62.10
2022-12-04T13:23:16.698Z,63.00
2022-12-04T13:25:47.069Z,63.57
2022-12-04T13:28:23.661Z,64.95
2022-12-04T13:30:56.869Z,65.79
2022-12-04T13:33:24.419Z,65.86
2022-12-04T13:36:53.631Z,66.88
2022-12-04T13:40:03.717Z,66.51
2022-12-04T13:42:32.163Z,67.37
2022-12-04T13:45:06.383Z,67.31
2022-12-04T13:47:35.606Z,67.58
2022-12-04T13:50:20.282Z,68.60
2022-12-04T13:52:49.374Z,67.88
2022-12-04T13:55:28.160Z,68.57
2022-12-04T13:57:59.402Z,69.00
2022-12-04T14:00:35.306Z,69.08
2022-12-04T14:03:25.975Z,69.35
2022-12-04T14:05:54.163Z,69.23
2022-12-04T14:08:29.216Z,69.81
2022-12-04T14:11:05.901Z,70.98
2022-12-04T14:13:44.612Z,70.00
2022-12-04T14:16:38.549Z,70.23
2022-12-04T14:19:07.476Z,70.34
2022-12-04T14:21:43.531Z,70.03
2022-12-04T14:24:30.533Z,70.15
2022-12-04T14:27:13.813Z,70.04
2022-12-04T14:29:49.534Z,70.36
2022-12-04T14:32:23.395Z,70.71
2022-12-04T14:34:51.097Z,70.63
2022-12-04T14:37:30.682Z,71.20
2022-12-04T14:40:01.760Z,71.03
2022-12-04T14:42:40.390Z,70.70
2022-12-04T14:45:27.891Z,70.25
2022-12-04T14:48:30.898Z,70.50
2022-12-04T14:51:16.892Z,70.69
2022-12-04T14:54:15.077Z,71.16
2022-12-04T14:57:17.254Z,71.00
2022-12-04T14:59:48.618Z,70.77
2022-12-04T15:02:19.899Z,71.00
2022-12-04T15:04:50.451Z,70.94
2022-12-04T15:07:19.633Z,71.38
2022-12-04T15:10:18.054Z,71.61
2022-12-04T15:12:50.693Z,70.54
2022-12-04T15:15:27.468Z,71.51
2022-12-04T15:18:13.261Z,71.87
2022-12-04T15:20:50.032Z,72.29
2022-12-04T15:23:44.055Z,71.78
2022-12-04T15:26:19.006Z,71.70
2022-12-04T15:28:57.175Z,72.44
2022-12-04T15:31:33.857Z,72.59
2022-12-04T15:34:06.521Z,72.04
2022-12-04T15:36:48.075Z,72.98
2022-12-04T15:39:20.369Z,72.76
2022-12-04T15:41:48.224Z,72.92
2022-12-04T15:44:27.930Z,73.14
2022-12-04T15:46:59.009Z,73.54
2022-12-04T15:49:32.624Z,73.10
2022-12-04T15:52:15.708Z,73.13
2022-12-04T15:55:05.689Z,73.34
2022-12-04T15:57:37.849Z,74.37
2022-12-04T16:00:08.524Z,73.04
2022-12-04T16:02:41.490Z,73.75
2022-12-04T16:05:21.181Z,74.08
2022-12-04T16:08:00.816Z,73.97
2022-12-04T16:10:31.892Z,73.54
2022-12-04T16:13:02.421Z,72.78
2022-12-04T16:15:41.205Z,72.45
2022-12-04T16:18:13.303Z,72.87
2022-12-04T16:20:41.507Z,72.99
2022-12-04T16:23:09.621Z,72.93
2022-12-04T16:25:37.515Z,73.19
2022-12-04T16:28:05.956Z,72.90
2022-12-04T16:30:35.745Z,73.51
2022-12-04T16:33:03.672Z,73.35
2022-12-04T16:35:31.616Z,73.34
2022-12-04T16:38:00.431Z,72.74
2022-12-04T16:40:28.053Z,73.16
2022-12-04T16:42:55.837Z,73.82
2022-12-04T16:45:32.125Z,73.16
2022-12-04T16:48:00.158Z,74.18
2022-12-04T16:50:28.031Z,74.30
2022-12-04T16:52:55.776Z,74.62
2022-12-04T16:55:31.154Z,74.62
2022-12-04T16:57:59.316Z,74.96
2022-12-04T17:00:27.166Z,76.33
2022-12-04T17:02:55.204Z,75.80
2022-12-04T17:05:27.688Z,76.12
2022-12-04T17:08:03.149Z,76.81
2022-12-04T17:10:30.926Z,76.76
2022-12-04T17:12:58.408Z,77.16
2022-12-04T17:15:26.503Z,77.74
2022-12-04T17:17:54.244Z,78.17
2022-12-04T17:20:22.329Z,75.71
2022-12-04T17:22:50.113Z,73.56
2022-12-04T17:25:19.485Z,74.32
2022-12-04T17:27:56.742Z,77.40
2022-12-04T17:30:25.148Z,77.37
2022-12-04T17:32:53.073Z,77.61
2022-12-04T17:35:20.947Z,78.12
2022-12-04T17:37:48.704Z,78.48
2022-12-04T17:40:16.453Z,78.58
2022-12-04T17:42:44.191Z,77.86
2022-12-04T17:45:12.138Z,78.42
2022-12-04T17:47:39.961Z,78.64
2022-12-04T17:50:07.982Z,77.91
2022-12-04T17:52:35.652Z,77.84
2022-12-04T17:55:03.589Z,76.68
2022-12-04T17:57:31.708Z,77.86
2022-12-04T18:00:00.250Z,78.47
2022-12-04T18:02:28.095Z,78.99
2022-12-04T18:04:56.404Z,77.95
2022-12-04T18:07:24.287Z,77.40
2022-12-04T18:09:52.022Z,78.10
2022-12-04T18:12:19.683Z,78.42
2022-12-04T18:14:47.603Z,77.69
2022-12-04T18:17:17.522Z,74.75
2022-12-04T18:19:45.297Z,73.27
2022-12-04T18:22:13.163Z,73.64
2022-12-04T18:24:40.907Z,77.91
2022-12-04T18:27:08.896Z,79.42
2022-12-04T18:29:36.723Z,79.75
2022-12-04T18:32:04.650Z,79.96
2022-12-04T18:34:32.472Z,80.11
2022-12-04T18:37:00.166Z,79.80
2022-12-04T18:39:27.733Z,76.59
2022-12-04T18:41:56.865Z,75.12
2022-12-04T18:44:24.944Z,76.75
2022-12-04T18:46:53.524Z,76.28
2022-12-04T18:49:21.322Z,76.48
2022-12-04T18:51:50.234Z,76.77
2022-12-04T18:54:23.623Z,77.89
2022-12-04T18:56:51.968Z,77.76
2022-12-04T18:59:26.149Z,77.57
2022-12-04T19:01:54.945Z,77.92
2022-12-04T19:04:24.572Z,81.38
2022-12-04T19:06:55.916Z,80.58
2022-12-04T19:12:15.881Z,77.62
2022-12-04T19:14:43.609Z,79.78
2022-12-04T19:17:11.768Z,80.80
2022-12-04T19:19:39.486Z,80.98
2022-12-04T19:22:07.279Z,80.46
2022-12-04T19:24:34.733Z,81.09
2022-12-04T19:27:10.030Z,81.46
2022-12-04T19:29:43.110Z,81.29
2022-12-04T19:32:11.744Z,81.65
2022-12-04T19:34:40.925Z,80.64
2022-12-04T19:37:08.809Z,80.86
2022-12-04T19:39:36.932Z,80.78
2022-12-04T19:42:04.662Z,76.42
2022-12-04T19:44:49.426Z,75.92
2022-12-04T19:47:19.035Z,77.36
2022-12-04T19:49:48.262Z,80.06
2022-12-04T19:52:16.726Z,79.62
2022-12-04T19:54:44.601Z,79.25
2022-12-04T19:57:14.602Z,78.91
2022-12-04T19:59:46.222Z,78.15
2022-12-04T20:02:28.303Z,77.98
2022-12-04T20:04:56.265Z,77.13
2022-12-04T20:07:24.125Z,76.85
2022-12-04T20:09:54.310Z,76.91
2022-12-04T20:12:21.829Z,75.37
2022-12-04T20:14:49.623Z,77.70
2022-12-04T20:17:17.505Z,76.77
2022-12-04T20:19:45.430Z,80.29
2022-12-04T20:22:13.246Z,77.06
2022-12-04T20:24:41.038Z,76.82
2022-12-04T20:27:08.893Z,76.01
2022-12-04T20:29:36.873Z,75.86
2022-12-04T20:32:04.742Z,75.44
2022-12-04T20:34:32.595Z,76.33
2022-12-04T20:37:00.480Z,75.16
2022-12-04T20:39:29.710Z,75.37
2022-12-04T20:41:57.416Z,74.93
2022-12-04T20:44:25.209Z,78.00
2022-12-04T20:46:53.402Z,74.87
2022-12-04T20:49:22.492Z,75.95
2022-12-04T20:51:51.882Z,76.25
2022-12-04T20:54:21.755Z,74.94
2022-12-04T20:56:52.077Z,75.60
2022-12-04T20:59:21.602Z,76.11
2022-12-04T21:01:51.439Z,76.83
2022-12-04T21:04:19.537Z,75.94
2022-12-04T21:06:47.262Z,77.03
2022-12-04T21:09:20.861Z,75.36
2022-12-04T21:11:58.949Z,75.95
2022-12-04T21:14:48.501Z,75.97
2022-12-04T21:17:19.313Z,74.76
2022-12-04T21:19:49.596Z,75.94
2022-12-04T21:22:18.499Z,75.81
2022-12-04T21:24:45.962Z,76.49
2022-12-04T21:27:20.455Z,75.47
2022-12-04T21:29:49.832Z,76.82
2022-12-04T21:32:18.961Z,76.34
2022-12-04T21:34:46.536Z,76.31
2022-12-04T21:37:14.375Z,76.01
2022-12-04T21:39:42.843Z,76.79
2022-12-04T21:42:28.939Z,76.63
2022-12-04T21:44:57.959Z,76.60
2022-12-04T21:47:25.867Z,75.28
2022-12-04T21:49:54.518Z,75.94
2022-12-04T21:52:22.365Z,76.55
2022-12-04T21:54:54.307Z,75.66
2022-12-04T21:57:22.377Z,75.71
2022-12-04T21:59:53.266Z,75.87
2022-12-04T22:02:21.184Z,75.89
2022-12-04T22:04:48.791Z,76.03
2022-12-04T22:07:16.323Z,74.70
2022-12-04T22:09:43.988Z,75.53
2022-12-04T22:12:33.107Z,76.25
2022-12-04T22:14:58.978Z,74.58
2022-12-04T22:17:29.644Z,73.75
2022-12-04T22:19:57.429Z,74.08
2022-12-04T22:22:25.156Z,73.71
2022-12-04T22:24:52.664Z,73.42
2022-12-04T22:27:20.164Z,72.63
2022-12-04T22:29:50.622Z,73.88
2022-12-04T22:32:19.382Z,73.44
2022-12-04T22:34:49.974Z,74.81
2022-12-04T22:37:17.734Z,74.03
2022-12-04T22:39:45.169Z,73.57
2022-12-04T22:42:12.689Z,72.87
2022-12-04T22:44:40.232Z,73.61
2022-12-04T22:47:07.810Z,73.58
2022-12-04T22:49:35.449Z,72.63
2022-12-04T22:52:03.048Z,72.41
2022-12-04T22:54:30.638Z,73.86
2022-12-04T22:56:58.124Z,74.63
2022-12-04T22:59:25.638Z,75.02
2022-12-04T23:01:53.283Z,73.56
2022-12-04T23:04:20.896Z,71.81
2022-12-04T23:06:48.362Z,73.30
2022-12-04T23:09:17.630Z,73.37
2022-12-04T23:11:45.978Z,72.86
2022-12-04T23:14:15.436Z,72.46
2022-12-04T23:16:43.244Z,72.01
2022-12-04T23:19:15.923Z,72.61
2022-12-04T23:21:44.469Z,72.14
2022-12-04T23:24:12.992Z,72.80
2022-12-04T23:26:43.786Z,73.17
2022-12-04T23:29:36.894Z,73.66
2022-12-04T23:31:59.324Z,75.02
2022-12-04T23:34:26.875Z,73.83
2022-12-04T23:36:54.427Z,71.95
2022-12-04T23:39:22.067Z,72.98
2022-12-04T23:41:49.673Z,73.14
2022-12-04T23:44:17.157Z,72.25
2022-12-04T23:46:44.650Z,72.23
2022-12-04T23:49:12.192Z,72.61
2022-12-04T23:51:39.750Z,72.76
2022-12-04T23:54:07.240Z,73.73
2022-12-04T23:56:34.773Z,74.46
2022-12-04T23:59:03.599Z,73.83
